sensor_id;sensor_type;location;lat;lon;timestamp;temperature;humidity
64939;DHT22;51453;47.738;7.420;2023-05-29T00:01:42;15.60;99.90
64939;DHT22;51453;47.738;7.420;2023-05-29T00:04:08;15.50;99.90
64939;DHT22;51453;47.738;7.420;2023-05-29T00:06:33;15.40;99.90
64939;DHT22;51453;47.738;7.420;2023-05-29T00:08:59;15.40;99.90
64939;DHT22;51453;47.738;7.420;2023-05-29T00:11:25;15.30;99.90
64939;DHT22;51453;47.738;7.420;2023-05-29T00:13:51;15.30;99.90
64939;DHT22;51453;47.738;7.420;2023-05-29T00:16:16;15.20;99.90
64939;DHT22;51453;47.738;7.420;2023-05-29T00:18:43;15.30;99.90
64939;DHT22;51453;47.738;7.420;2023-05-29T00:21:14;15.20;99.90
64939;DHT22;51453;47.738;7.420;2023-05-29T00:23:39;15.30;99.90
64939;DHT22;51453;47.738;7.420;2023-05-29T00:26:05;15.30;99.90
64939;DHT22;51453;47.738;7.420;2023-05-29T00:28:31;15.30;99.90
64939;DHT22;51453;47.738;7.420;2023-05-29T00:30:56;15.30;99.90
64939;DHT22;51453;47.738;7.420;2023-05-29T00:33:22;15.40;99.90
64939;DHT22;51453;47.738;7.420;2023-05-29T00:35:48;15.40;99.90
64939;DHT22;51453;47.738;7.420;2023-05-29T00:38:14;15.40;99.90
64939;DHT22;51453;47.738;7.420;2023-05-29T00:40:40;15.40;99.90
64939;DHT22;51453;47.738;7.420;2023-05-29T00:43:06;15.40;99.90
64939;DHT22;51453;47.738;7.420;2023-05-29T00:45:32;15.40;99.90
64939;DHT22;51453;47.738;7.420;2023-05-29T00:48:05;15.40;99.90
64939;DHT22;51453;47.738;7.420;2023-05-29T00:50:31;15.40;99.90
64939;DHT22;51453;47.738;7.420;2023-05-29T00:52:58;15.30;99.90
64939;DHT22;51453;47.738;7.420;2023-05-29T00:55:24;15.30;99.90
64939;DHT22;51453;47.738;7.420;2023-05-29T00:57:50;15.30;99.90
64939;DHT22;51453;47.738;7.420;2023-05-29T01:00:16;15.30;99.90
64939;DHT22;51453;47.738;7.420;2023-05-29T01:02:44;15.20;99.90
64939;DHT22;51453;47.738;7.420;2023-05-29T01:05:11;15.20;99.90
64939;DHT22;51453;47.738;7.420;2023-05-29T01:07:38;15.20;99.90
64939;DHT22;51453;47.738;7.420;2023-05-29T01:10:05;15.10;99.90
64939;DHT22;51453;47.738;7.420;2023-05-29T01:21:09;15.00;99.90
64939;DHT22;51453;47.738;7.420;2023-05-29T01:26:51;15.10;99.90
64939;DHT22;51453;47.738;7.420;2023-05-29T01:29:23;15.10;99.90
64939;DHT22;51453;47.738;7.420;2023-05-29T01:31:50;15.00;99.90
64939;DHT22;51453;47.738;7.420;2023-05-29T01:34:16;15.00;99.90
64939;DHT22;51453;47.738;7.420;2023-05-29T01:36:42;15.00;99.90
64939;DHT22;51453;47.738;7.420;2023-05-29T01:39:08;15.00;99.90
64939;DHT22;51453;47.738;7.420;2023-05-29T01:41:35;15.00;99.90
64939;DHT22;51453;47.738;7.420;2023-05-29T01:44:04;15.00;99.90
64939;DHT22;51453;47.738;7.420;2023-05-29T01:46:30;15.00;99.90
64939;DHT22;51453;47.738;7.420;2023-05-29T01:48:56;15.00;99.90
64939;DHT22;51453;47.738;7.420;2023-05-29T01:51:21;14.90;99.90
64939;DHT22;51453;47.738;7.420;2023-05-29T01:53:47;14.90;99.90
64939;DHT22;51453;47.738;7.420;2023-05-29T01:56:13;14.90;99.90
64939;DHT22;51453;47.738;7.420;2023-05-29T01:58:40;14.80;99.90
64939;DHT22;51453;47.738;7.420;2023-05-29T02:01:06;14.80;99.90
64939;DHT22;51453;47.738;7.420;2023-05-29T02:03:33;14.70;99.90
64939;DHT22;51453;47.738;7.420;2023-05-29T02:05:59;14.70;99.90
64939;DHT22;51453;47.738;7.420;2023-05-29T02:08:26;14.60;99.90
64939;DHT22;51453;47.738;7.420;2023-05-29T02:10:52;14.50;99.90
64939;DHT22;51453;47.738;7.420;2023-05-29T02:13:18;14.50;99.90
64939;DHT22;51453;47.738;7.420;2023-05-29T02:15:44;14.40;99.90
64939;DHT22;51453;47.738;7.420;2023-05-29T02:18:12;14.30;99.90
64939;DHT22;51453;47.738;7.420;2023-05-29T02:20:38;14.20;99.90
64939;DHT22;51453;47.738;7.420;2023-05-29T02:23:04;14.20;99.90
64939;DHT22;51453;47.738;7.420;2023-05-29T02:25:29;14.10;99.90
64939;DHT22;51453;47.738;7.420;2023-05-29T02:27:55;14.10;99.90
64939;DHT22;51453;47.738;7.420;2023-05-29T02:30:21;14.00;99.90
64939;DHT22;51453;47.738;7.420;2023-05-29T02:32:46;13.90;99.90
64939;DHT22;51453;47.738;7.420;2023-05-29T02:35:12;13.90;99.90
64939;DHT22;51453;47.738;7.420;2023-05-29T02:37:42;13.80;99.90
64939;DHT22;51453;47.738;7.420;2023-05-29T02:40:08;13.80;99.90
64939;DHT22;51453;47.738;7.420;2023-05-29T02:42:35;13.80;99.90
64939;DHT22;51453;47.738;7.420;2023-05-29T02:45:00;13.90;99.90
64939;DHT22;51453;47.738;7.420;2023-05-29T02:47:26;13.90;99.90
64939;DHT22;51453;47.738;7.420;2023-05-29T02:49:51;13.90;99.90
64939;DHT22;51453;47.738;7.420;2023-05-29T02:52:17;13.90;99.90
64939;DHT22;51453;47.738;7.420;2023-05-29T02:54:43;13.90;99.90
64939;DHT22;51453;47.738;7.420;2023-05-29T02:57:08;13.90;99.90
64939;DHT22;51453;47.738;7.420;2023-05-29T02:59:35;13.90;99.90
64939;DHT22;51453;47.738;7.420;2023-05-29T03:02:00;13.90;99.90
64939;DHT22;51453;47.738;7.420;2023-05-29T03:04:27;13.90;99.90
64939;DHT22;51453;47.738;7.420;2023-05-29T03:06:52;13.90;99.90
64939;DHT22;51453;47.738;7.420;2023-05-29T03:09:19;13.80;99.90
64939;DHT22;51453;47.738;7.420;2023-05-29T03:11:45;13.80;99.90
64939;DHT22;51453;47.738;7.420;2023-05-29T03:14:13;13.70;99.90
64939;DHT22;51453;47.738;7.420;2023-05-29T03:16:38;13.70;99.90
64939;DHT22;51453;47.738;7.420;2023-05-29T03:19:06;13.70;99.90
64939;DHT22;51453;47.738;7.420;2023-05-29T03:21:33;13.70;99.90
64939;DHT22;51453;47.738;7.420;2023-05-29T03:23:59;13.70;99.90
64939;DHT22;51453;47.738;7.420;2023-05-29T03:26:25;13.70;99.90
64939;DHT22;51453;47.738;7.420;2023-05-29T03:28:51;13.60;99.90
64939;DHT22;51453;47.738;7.420;2023-05-29T03:31:16;13.60;99.90
64939;DHT22;51453;47.738;7.420;2023-05-29T03:33:42;13.60;99.90
64939;DHT22;51453;47.738;7.420;2023-05-29T03:36:08;13.50;99.90
64939;DHT22;51453;47.738;7.420;2023-05-29T03:38:34;13.40;99.90
64939;DHT22;51453;47.738;7.420;2023-05-29T03:40:59;13.40;99.90
64939;DHT22;51453;47.738;7.420;2023-05-29T03:43:25;13.30;99.90
64939;DHT22;51453;47.738;7.420;2023-05-29T03:45:51;13.30;99.90
64939;DHT22;51453;47.738;7.420;2023-05-29T03:48:16;13.30;99.90
64939;DHT22;51453;47.738;7.420;2023-05-29T03:50:42;13.30;99.90
64939;DHT22;51453;47.738;7.420;2023-05-29T03:53:07;13.30;99.90
64939;DHT22;51453;47.738;7.420;2023-05-29T03:55:33;13.00;99.90
64939;DHT22;51453;47.738;7.420;2023-05-29T03:57:59;13.00;99.90
64939;DHT22;51453;47.738;7.420;2023-05-29T04:00:24;13.00;99.90
64939;DHT22;51453;47.738;7.420;2023-05-29T04:02:51;13.00;99.90
64939;DHT22;51453;47.738;7.420;2023-05-29T04:05:17;13.00;99.90
64939;DHT22;51453;47.738;7.420;2023-05-29T04:07:42;13.10;99.90
64939;DHT22;51453;47.738;7.420;2023-05-29T04:10:08;13.10;99.90
64939;DHT22;51453;47.738;7.420;2023-05-29T04:12:34;13.20;99.90
64939;DHT22;51453;47.738;7.420;2023-05-29T04:15:00;13.20;99.90
64939;DHT22;51453;47.738;7.420;2023-05-29T04:17:26;13.30;99.90
64939;DHT22;51453;47.738;7.420;2023-05-29T04:19:51;13.40;99.90
64939;DHT22;51453;47.738;7.420;2023-05-29T04:22:17;13.60;99.90
64939;DHT22;51453;47.738;7.420;2023-05-29T04:24:43;14.00;99.90
64939;DHT22;51453;47.738;7.420;2023-05-29T04:27:09;14.50;99.90
64939;DHT22;51453;47.738;7.420;2023-05-29T04:29:39;15.00;99.90
64939;DHT22;51453;47.738;7.420;2023-05-29T04:32:06;15.50;99.90
64939;DHT22;51453;47.738;7.420;2023-05-29T04:34:33;16.00;99.90
64939;DHT22;51453;47.738;7.420;2023-05-29T04:36:59;16.60;99.90
64939;DHT22;51453;47.738;7.420;2023-05-29T04:39:25;17.20;99.90
64939;DHT22;51453;47.738;7.420;2023-05-29T04:41:51;17.70;99.90
64939;DHT22;51453;47.738;7.420;2023-05-29T04:44:17;18.30;99.90
64939;DHT22;51453;47.738;7.420;2023-05-29T04:46:43;18.90;99.90
64939;DHT22;51453;47.738;7.420;2023-05-29T04:49:11;19.40;99.90
64939;DHT22;51453;47.738;7.420;2023-05-29T04:51:38;20.00;99.90
64939;DHT22;51453;47.738;7.420;2023-05-29T04:54:09;20.30;99.90
64939;DHT22;51453;47.738;7.420;2023-05-29T04:56:35;20.60;99.90
64939;DHT22;51453;47.738;7.420;2023-05-29T04:59:01;20.80;99.90
64939;DHT22;51453;47.738;7.420;2023-05-29T05:01:26;21.00;99.90
64939;DHT22;51453;47.738;7.420;2023-05-29T05:03:52;21.20;99.90
64939;DHT22;51453;47.738;7.420;2023-05-29T05:06:22;21.50;99.90
64939;DHT22;51453;47.738;7.420;2023-05-29T05:08:47;21.50;99.90
64939;DHT22;51453;47.738;7.420;2023-05-29T05:11:14;21.80;99.90
64939;DHT22;51453;47.738;7.420;2023-05-29T05:13:39;22.00;99.90
64939;DHT22;51453;47.738;7.420;2023-05-29T05:16:05;22.20;99.90
64939;DHT22;51453;47.738;7.420;2023-05-29T05:18:31;22.40;99.90
64939;DHT22;51453;47.738;7.420;2023-05-29T05:20:57;22.40;99.90
64939;DHT22;51453;47.738;7.420;2023-05-29T05:23:23;22.30;99.90
64939;DHT22;51453;47.738;7.420;2023-05-29T05:25:48;21.90;99.90
64939;DHT22;51453;47.738;7.420;2023-05-29T05:28:14;21.80;99.90
64939;DHT22;51453;47.738;7.420;2023-05-29T05:30:40;21.30;99.90
64939;DHT22;51453;47.738;7.420;2023-05-29T05:33:05;21.10;99.90
64939;DHT22;51453;47.738;7.420;2023-05-29T05:35:33;20.80;99.90
64939;DHT22;51453;47.738;7.420;2023-05-29T05:37:58;20.70;99.90
64939;DHT22;51453;47.738;7.420;2023-05-29T05:40:25;20.30;99.90
64939;DHT22;51453;47.738;7.420;2023-05-29T05:42:51;20.60;99.90
64939;DHT22;51453;47.738;7.420;2023-05-29T05:45:17;20.60;99.90
64939;DHT22;51453;47.738;7.420;2023-05-29T05:47:42;20.50;99.90
64939;DHT22;51453;47.738;7.420;2023-05-29T05:50:08;20.50;99.90
64939;DHT22;51453;47.738;7.420;2023-05-29T05:52:34;20.70;99.90
64939;DHT22;51453;47.738;7.420;2023-05-29T05:55:00;20.70;99.90
64939;DHT22;51453;47.738;7.420;2023-05-29T05:57:25;20.80;99.90
64939;DHT22;51453;47.738;7.420;2023-05-29T05:59:52;20.50;99.90
64939;DHT22;51453;47.738;7.420;2023-05-29T06:02:18;20.10;99.90
64939;DHT22;51453;47.738;7.420;2023-05-29T06:04:43;20.20;99.90
64939;DHT22;51453;47.738;7.420;2023-05-29T06:07:09;20.30;99.90
64939;DHT22;51453;47.738;7.420;2023-05-29T06:09:35;20.80;99.90
64939;DHT22;51453;47.738;7.420;2023-05-29T06:12:01;20.30;99.90
64939;DHT22;51453;47.738;7.420;2023-05-29T06:14:27;20.40;99.90
64939;DHT22;51453;47.738;7.420;2023-05-29T06:16:52;20.50;99.90
64939;DHT22;51453;47.738;7.420;2023-05-29T06:19:19;20.20;99.90
64939;DHT22;51453;47.738;7.420;2023-05-29T06:21:44;20.40;99.90
64939;DHT22;51453;47.738;7.420;2023-05-29T06:24:10;20.10;99.90
64939;DHT22;51453;47.738;7.420;2023-05-29T06:26:36;19.90;99.90
64939;DHT22;51453;47.738;7.420;2023-05-29T06:29:02;19.90;99.90
64939;DHT22;51453;47.738;7.420;2023-05-29T06:31:28;20.40;99.90
64939;DHT22;51453;47.738;7.420;2023-05-29T06:33:54;20.90;99.90
64939;DHT22;51453;47.738;7.420;2023-05-29T06:36:20;20.90;99.90
64939;DHT22;51453;47.738;7.420;2023-05-29T06:38:50;20.50;99.90
64939;DHT22;51453;47.738;7.420;2023-05-29T06:41:16;20.90;99.90
64939;DHT22;51453;47.738;7.420;2023-05-29T06:43:42;20.90;99.90
64939;DHT22;51453;47.738;7.420;2023-05-29T06:46:07;21.30;99.90
64939;DHT22;51453;47.738;7.420;2023-05-29T06:48:34;21.00;99.90
64939;DHT22;51453;47.738;7.420;2023-05-29T06:51:00;20.90;99.90
64939;DHT22;51453;47.738;7.420;2023-05-29T06:53:25;20.80;99.90
64939;DHT22;51453;47.738;7.420;2023-05-29T06:55:52;20.70;99.90
64939;DHT22;51453;47.738;7.420;2023-05-29T06:58:18;20.80;99.90
64939;DHT22;51453;47.738;7.420;2023-05-29T07:00:44;20.40;99.90
64939;DHT22;51453;47.738;7.420;2023-05-29T07:03:09;20.30;99.90
64939;DHT22;51453;47.738;7.420;2023-05-29T07:05:35;20.80;99.90
64939;DHT22;51453;47.738;7.420;2023-05-29T07:08:00;20.40;99.90
64939;DHT22;51453;47.738;7.420;2023-05-29T07:10:26;20.20;99.90
64939;DHT22;51453;47.738;7.420;2023-05-29T07:12:52;20.30;99.90
64939;DHT22;51453;47.738;7.420;2023-05-29T07:15:17;20.00;99.90
64939;DHT22;51453;47.738;7.420;2023-05-29T07:17:43;20.00;99.90
64939;DHT22;51453;47.738;7.420;2023-05-29T07:20:09;20.10;99.90
64939;DHT22;51453;47.738;7.420;2023-05-29T07:22:35;20.40;99.90
64939;DHT22;51453;47.738;7.420;2023-05-29T07:25:01;20.50;99.90
64939;DHT22;51453;47.738;7.420;2023-05-29T07:27:27;20.60;99.90
64939;DHT22;51453;47.738;7.420;2023-05-29T07:29:52;20.40;99.90
64939;DHT22;51453;47.738;7.420;2023-05-29T07:32:18;20.80;99.90
64939;DHT22;51453;47.738;7.420;2023-05-29T07:34:44;20.40;99.90
64939;DHT22;51453;47.738;7.420;2023-05-29T07:37:11;20.30;99.90
64939;DHT22;51453;47.738;7.420;2023-05-29T07:39:37;20.40;99.90
64939;DHT22;51453;47.738;7.420;2023-05-29T07:42:03;20.60;99.90
64939;DHT22;51453;47.738;7.420;2023-05-29T07:44:29;21.00;99.90
64939;DHT22;51453;47.738;7.420;2023-05-29T07:46:55;21.40;99.90
64939;DHT22;51453;47.738;7.420;2023-05-29T07:49:20;21.20;99.90
64939;DHT22;51453;47.738;7.420;2023-05-29T07:51:46;20.90;99.90
64939;DHT22;51453;47.738;7.420;2023-05-29T07:54:12;20.80;99.90
64939;DHT22;51453;47.738;7.420;2023-05-29T07:56:38;21.10;99.90
64939;DHT22;51453;47.738;7.420;2023-05-29T07:59:06;21.50;99.90
64939;DHT22;51453;47.738;7.420;2023-05-29T08:01:32;21.40;99.90
64939;DHT22;51453;47.738;7.420;2023-05-29T08:03:59;21.30;99.90
64939;DHT22;51453;47.738;7.420;2023-05-29T08:06:25;21.20;99.90
64939;DHT22;51453;47.738;7.420;2023-05-29T08:08:50;21.10;99.90
64939;DHT22;51453;47.738;7.420;2023-05-29T08:11:17;21.20;99.90
64939;DHT22;51453;47.738;7.420;2023-05-29T08:13:43;21.50;99.90
64939;DHT22;51453;47.738;7.420;2023-05-29T08:16:09;21.60;99.90
64939;DHT22;51453;47.738;7.420;2023-05-29T08:18:34;21.60;99.90
64939;DHT22;51453;47.738;7.420;2023-05-29T08:21:00;21.90;99.90
64939;DHT22;51453;47.738;7.420;2023-05-29T08:23:26;22.00;99.90
64939;DHT22;51453;47.738;7.420;2023-05-29T08:25:52;22.00;99.90
64939;DHT22;51453;47.738;7.420;2023-05-29T08:28:17;21.80;99.90
64939;DHT22;51453;47.738;7.420;2023-05-29T08:30:43;21.90;99.90
64939;DHT22;51453;47.738;7.420;2023-05-29T08:33:09;21.90;99.90
64939;DHT22;51453;47.738;7.420;2023-05-29T08:35:34;22.00;99.90
64939;DHT22;51453;47.738;7.420;2023-05-29T08:38:00;22.20;99.90
64939;DHT22;51453;47.738;7.420;2023-05-29T08:40:26;22.40;99.90
64939;DHT22;51453;47.738;7.420;2023-05-29T08:43:21;22.60;99.90
64939;DHT22;51453;47.738;7.420;2023-05-29T08:45:51;22.90;99.90
64939;DHT22;51453;47.738;7.420;2023-05-29T08:48:19;23.20;99.90
64939;DHT22;51453;47.738;7.420;2023-05-29T08:50:48;23.50;99.90
64939;DHT22;51453;47.738;7.420;2023-05-29T08:53:14;23.20;99.90
64939;DHT22;51453;47.738;7.420;2023-05-29T08:55:44;22.80;99.90
64939;DHT22;51453;47.738;7.420;2023-05-29T08:58:11;23.00;99.90
64939;DHT22;51453;47.738;7.420;2023-05-29T09:00:37;23.00;99.90
64939;DHT22;51453;47.738;7.420;2023-05-29T09:03:02;23.30;99.90
64939;DHT22;51453;47.738;7.420;2023-05-29T09:05:28;23.30;99.90
64939;DHT22;51453;47.738;7.420;2023-05-29T09:07:55;23.20;99.90
64939;DHT22;51453;47.738;7.420;2023-05-29T09:10:22;23.10;99.90
64939;DHT22;51453;47.738;7.420;2023-05-29T09:12:48;23.20;99.90
64939;DHT22;51453;47.738;7.420;2023-05-29T09:15:23;23.50;99.90
64939;DHT22;51453;47.738;7.420;2023-05-29T09:20:16;24.10;99.90
64939;DHT22;51453;47.738;7.420;2023-05-29T09:22:58;24.10;99.90
64939;DHT22;51453;47.738;7.420;2023-05-29T09:25:25;23.70;99.90
64939;DHT22;51453;47.738;7.420;2023-05-29T09:28:03;23.60;99.90
64939;DHT22;51453;47.738;7.420;2023-05-29T09:30:45;23.60;99.90
64939;DHT22;51453;47.738;7.420;2023-05-29T09:33:12;23.60;99.90
64939;DHT22;51453;47.738;7.420;2023-05-29T09:35:42;23.80;99.90
64939;DHT22;51453;47.738;7.420;2023-05-29T09:38:10;24.00;99.90
64939;DHT22;51453;47.738;7.420;2023-05-29T09:40:38;24.40;99.90
64939;DHT22;51453;47.738;7.420;2023-05-29T09:43:10;24.60;99.90
64939;DHT22;51453;47.738;7.420;2023-05-29T09:45:41;24.60;99.90
64939;DHT22;51453;47.738;7.420;2023-05-29T09:48:33;24.30;99.90
64939;DHT22;51453;47.738;7.420;2023-05-29T09:50:57;24.00;99.90
64939;DHT22;51453;47.738;7.420;2023-05-29T09:53:28;23.90;99.90
64939;DHT22;51453;47.738;7.420;2023-05-29T09:55:57;24.30;99.90
64939;DHT22;51453;47.738;7.420;2023-05-29T09:58:26;24.40;99.90
64939;DHT22;51453;47.738;7.420;2023-05-29T10:00:52;24.60;99.90
64939;DHT22;51453;47.738;7.420;2023-05-29T10:03:18;24.90;99.90
64939;DHT22;51453;47.738;7.420;2023-05-29T10:05:49;24.70;99.90
64939;DHT22;51453;47.738;7.420;2023-05-29T10:08:17;24.70;99.90
64939;DHT22;51453;47.738;7.420;2023-05-29T10:10:45;24.80;99.90
64939;DHT22;51453;47.738;7.420;2023-05-29T10:13:13;25.00;99.90
64939;DHT22;51453;47.738;7.420;2023-05-29T10:15:45;24.90;99.90
64939;DHT22;51453;47.738;7.420;2023-05-29T10:18:44;24.70;99.90
64939;DHT22;51453;47.738;7.420;2023-05-29T10:21:15;25.00;99.90
64939;DHT22;51453;47.738;7.420;2023-05-29T10:23:46;25.50;99.90
64939;DHT22;51453;47.738;7.420;2023-05-29T10:26:15;25.80;99.90
64939;DHT22;51453;47.738;7.420;2023-05-29T10:28:49;25.80;99.90
64939;DHT22;51453;47.738;7.420;2023-05-29T10:31:24;25.50;99.90
64939;DHT22;51453;47.738;7.420;2023-05-29T10:36:42;25.50;99.90
64939;DHT22;51453;47.738;7.420;2023-05-29T10:39:09;25.50;99.90
64939;DHT22;51453;47.738;7.420;2023-05-29T10:41:35;25.60;99.60
64939;DHT22;51453;47.738;7.420;2023-05-29T10:49:25;25.50;99.90
64939;DHT22;51453;47.738;7.420;2023-05-29T10:51:51;25.50;99.90
64939;DHT22;51453;47.738;7.420;2023-05-29T10:54:24;25.70;99.90
64939;DHT22;51453;47.738;7.420;2023-05-29T10:57:01;26.00;99.90
64939;DHT22;51453;47.738;7.420;2023-05-29T10:59:27;26.10;99.90
64939;DHT22;51453;47.738;7.420;2023-05-29T11:01:54;26.30;99.90
64939;DHT22;51453;47.738;7.420;2023-05-29T11:06:46;26.70;97.40
64939;DHT22;51453;47.738;7.420;2023-05-29T11:12:17;26.20;98.50
64939;DHT22;51453;47.738;7.420;2023-05-29T11:15:05;26.20;97.20
64939;DHT22;51453;47.738;7.420;2023-05-29T11:20:05;26.40;97.40
64939;DHT22;51453;47.738;7.420;2023-05-29T11:23:14;26.40;97.80
64939;DHT22;51453;47.738;7.420;2023-05-29T11:25:43;26.40;97.70
64939;DHT22;51453;47.738;7.420;2023-05-29T11:28:09;26.20;97.30
64939;DHT22;51453;47.738;7.420;2023-05-29T11:30:46;26.30;99.90
64939;DHT22;51453;47.738;7.420;2023-05-29T11:33:26;26.70;98.20
64939;DHT22;51453;47.738;7.420;2023-05-29T11:35:57;27.00;98.40
64939;DHT22;51453;47.738;7.420;2023-05-29T11:38:24;27.00;95.30
64939;DHT22;51453;47.738;7.420;2023-05-29T11:40:55;27.20;96.80
64939;DHT22;51453;47.738;7.420;2023-05-29T11:43:21;27.20;95.80
64939;DHT22;51453;47.738;7.420;2023-05-29T11:45:47;27.10;94.80
64939;DHT22;51453;47.738;7.420;2023-05-29T11:48:13;26.90;95.00
64939;DHT22;51453;47.738;7.420;2023-05-29T11:50:39;26.90;95.50
64939;DHT22;51453;47.738;7.420;2023-05-29T11:53:06;26.80;94.50
64939;DHT22;51453;47.738;7.420;2023-05-29T11:55:32;26.80;95.60
64939;DHT22;51453;47.738;7.420;2023-05-29T11:57:59;26.90;95.90
64939;DHT22;51453;47.738;7.420;2023-05-29T12:00:30;26.80;94.10
64939;DHT22;51453;47.738;7.420;2023-05-29T12:02:57;26.80;95.70
64939;DHT22;51453;47.738;7.420;2023-05-29T12:05:23;26.80;96.10
64939;DHT22;51453;47.738;7.420;2023-05-29T12:07:56;26.90;94.70
64939;DHT22;51453;47.738;7.420;2023-05-29T12:10:22;27.20;93.60
64939;DHT22;51453;47.738;7.420;2023-05-29T12:12:53;27.10;93.10
64939;DHT22;51453;47.738;7.420;2023-05-29T12:15:19;27.20;93.40
64939;DHT22;51453;47.738;7.420;2023-05-29T12:17:47;27.10;94.70
64939;DHT22;51453;47.738;7.420;2023-05-29T12:20:13;26.90;92.50
64939;DHT22;51453;47.738;7.420;2023-05-29T12:22:41;26.80;92.70
64939;DHT22;51453;47.738;7.420;2023-05-29T12:25:08;26.80;91.20
64939;DHT22;51453;47.738;7.420;2023-05-29T12:27:34;27.00;96.30
64939;DHT22;51453;47.738;7.420;2023-05-29T12:30:10;27.10;93.20
64939;DHT22;51453;47.738;7.420;2023-05-29T12:32:37;27.10;93.50
64939;DHT22;51453;47.738;7.420;2023-05-29T12:35:30;27.00;91.20
64939;DHT22;51453;47.738;7.420;2023-05-29T12:37:57;27.10;91.70
64939;DHT22;51453;47.738;7.420;2023-05-29T12:40:33;27.00;92.40
64939;DHT22;51453;47.738;7.420;2023-05-29T12:43:01;27.10;91.10
64939;DHT22;51453;47.738;7.420;2023-05-29T12:45:29;27.30;94.40
64939;DHT22;51453;47.738;7.420;2023-05-29T12:50:30;27.80;91.20
64939;DHT22;51453;47.738;7.420;2023-05-29T12:53:16;27.90;94.70
64939;DHT22;51453;47.738;7.420;2023-05-29T12:55:46;27.70;93.10
64939;DHT22;51453;47.738;7.420;2023-05-29T12:58:13;27.40;92.00
64939;DHT22;51453;47.738;7.420;2023-05-29T13:00:41;27.30;92.30
64939;DHT22;51453;47.738;7.420;2023-05-29T13:03:08;27.20;93.30
64939;DHT22;51453;47.738;7.420;2023-05-29T13:05:34;27.20;92.00
64939;DHT22;51453;47.738;7.420;2023-05-29T13:08:00;27.40;91.90
64939;DHT22;51453;47.738;7.420;2023-05-29T13:10:27;27.80;91.90
64939;DHT22;51453;47.738;7.420;2023-05-29T13:12:54;28.20;89.00
64939;DHT22;51453;47.738;7.420;2023-05-29T13:15:21;28.70;88.40
64939;DHT22;51453;47.738;7.420;2023-05-29T13:17:47;28.90;91.30
64939;DHT22;51453;47.738;7.420;2023-05-29T13:20:14;29.00;90.70
64939;DHT22;51453;47.738;7.420;2023-05-29T13:22:40;29.20;87.80
64939;DHT22;51453;47.738;7.420;2023-05-29T13:25:07;29.20;91.00
64939;DHT22;51453;47.738;7.420;2023-05-29T13:27:38;29.20;90.00
64939;DHT22;51453;47.738;7.420;2023-05-29T13:30:05;29.10;85.00
64939;DHT22;51453;47.738;7.420;2023-05-29T13:32:31;28.70;85.30
64939;DHT22;51453;47.738;7.420;2023-05-29T13:34:57;28.70;86.30
64939;DHT22;51453;47.738;7.420;2023-05-29T13:37:23;28.90;87.60
64939;DHT22;51453;47.738;7.420;2023-05-29T13:39:49;29.00;87.60
64939;DHT22;51453;47.738;7.420;2023-05-29T13:42:15;29.10;90.00
64939;DHT22;51453;47.738;7.420;2023-05-29T13:44:41;29.20;87.50
64939;DHT22;51453;47.738;7.420;2023-05-29T13:47:07;29.40;86.20
64939;DHT22;51453;47.738;7.420;2023-05-29T13:49:34;29.30;89.80
64939;DHT22;51453;47.738;7.420;2023-05-29T13:52:00;29.20;90.30
64939;DHT22;51453;47.738;7.420;2023-05-29T13:54:26;29.00;86.20
64939;DHT22;51453;47.738;7.420;2023-05-29T13:56:55;29.20;87.80
64939;DHT22;51453;47.738;7.420;2023-05-29T13:59:21;29.50;86.60
64939;DHT22;51453;47.738;7.420;2023-05-29T14:01:46;29.10;86.50
64939;DHT22;51453;47.738;7.420;2023-05-29T14:04:13;28.90;87.00
64939;DHT22;51453;47.738;7.420;2023-05-29T14:06:38;28.60;87.30
64939;DHT22;51453;47.738;7.420;2023-05-29T14:09:04;28.60;89.30
64939;DHT22;51453;47.738;7.420;2023-05-29T14:11:30;28.50;87.20
64939;DHT22;51453;47.738;7.420;2023-05-29T14:13:55;28.60;88.30
64939;DHT22;51453;47.738;7.420;2023-05-29T14:16:21;28.70;91.10
64939;DHT22;51453;47.738;7.420;2023-05-29T14:18:47;28.70;90.00
64939;DHT22;51453;47.738;7.420;2023-05-29T14:21:14;28.50;87.60
64939;DHT22;51453;47.738;7.420;2023-05-29T14:23:39;28.20;87.70
64939;DHT22;51453;47.738;7.420;2023-05-29T14:26:05;28.20;87.80
64939;DHT22;51453;47.738;7.420;2023-05-29T14:28:31;28.50;86.90
64939;DHT22;51453;47.738;7.420;2023-05-29T14:30:56;28.90;87.20
64939;DHT22;51453;47.738;7.420;2023-05-29T14:33:22;28.60;87.90
64939;DHT22;51453;47.738;7.420;2023-05-29T14:35:48;28.30;86.70
64939;DHT22;51453;47.738;7.420;2023-05-29T14:38:13;28.20;87.00
64939;DHT22;51453;47.738;7.420;2023-05-29T14:40:39;28.20;86.40
64939;DHT22;51453;47.738;7.420;2023-05-29T14:43:04;28.10;89.20
64939;DHT22;51453;47.738;7.420;2023-05-29T14:45:30;28.20;89.90
64939;DHT22;51453;47.738;7.420;2023-05-29T14:47:56;28.40;88.40
64939;DHT22;51453;47.738;7.420;2023-05-29T14:50:22;28.40;89.00
64939;DHT22;51453;47.738;7.420;2023-05-29T14:52:47;28.40;87.80
64939;DHT22;51453;47.738;7.420;2023-05-29T14:55:13;28.60;87.80
64939;DHT22;51453;47.738;7.420;2023-05-29T14:57:41;28.60;88.90
64939;DHT22;51453;47.738;7.420;2023-05-29T15:00:08;28.60;87.80
64939;DHT22;51453;47.738;7.420;2023-05-29T15:02:34;28.70;89.10
64939;DHT22;51453;47.738;7.420;2023-05-29T15:05:00;28.70;86.70
64939;DHT22;51453;47.738;7.420;2023-05-29T15:07:26;28.90;86.00
64939;DHT22;51453;47.738;7.420;2023-05-29T15:09:51;28.80;86.90
64939;DHT22;51453;47.738;7.420;2023-05-29T15:12:17;28.80;85.40
64939;DHT22;51453;47.738;7.420;2023-05-29T15:14:43;28.50;84.00
64939;DHT22;51453;47.738;7.420;2023-05-29T15:17:08;28.40;85.20
64939;DHT22;51453;47.738;7.420;2023-05-29T15:19:34;28.40;84.60
64939;DHT22;51453;47.738;7.420;2023-05-29T15:22:00;28.30;84.90
64939;DHT22;51453;47.738;7.420;2023-05-29T15:24:25;28.10;84.50
64939;DHT22;51453;47.738;7.420;2023-05-29T15:26:51;28.00;85.00
64939;DHT22;51453;47.738;7.420;2023-05-29T15:29:17;28.10;86.70
64939;DHT22;51453;47.738;7.420;2023-05-29T15:31:42;28.20;84.00
64939;DHT22;51453;47.738;7.420;2023-05-29T15:34:08;28.30;83.80
64939;DHT22;51453;47.738;7.420;2023-05-29T15:36:34;28.10;83.90
64939;DHT22;51453;47.738;7.420;2023-05-29T15:39:02;27.90;84.20
64939;DHT22;51453;47.738;7.420;2023-05-29T15:41:27;27.60;85.30
64939;DHT22;51453;47.738;7.420;2023-05-29T15:43:55;27.60;84.30
64939;DHT22;51453;47.738;7.420;2023-05-29T15:46:21;27.60;85.20
64939;DHT22;51453;47.738;7.420;2023-05-29T15:48:47;28.00;85.20
64939;DHT22;51453;47.738;7.420;2023-05-29T15:51:12;28.00;84.60
64939;DHT22;51453;47.738;7.420;2023-05-29T15:53:38;27.60;84.10
64939;DHT22;51453;47.738;7.420;2023-05-29T15:56:04;27.30;85.60
64939;DHT22;51453;47.738;7.420;2023-05-29T15:58:29;27.20;86.80
64939;DHT22;51453;47.738;7.420;2023-05-29T16:00:55;27.10;86.90
64939;DHT22;51453;47.738;7.420;2023-05-29T16:03:21;27.30;86.60